sensor_id;sensor_type;location;lat;lon;timestamp;P1;durP1;ratioP1;P2;durP2;ratioP2
52434;SDS011;38354;52.892;6.148;2023-03-01T04:00:37;34.25;;;12.98;;
52434;SDS011;38354;52.892;6.148;2023-03-01T04:03:05;59.38;;;14.95;;
52434;SDS011;38354;52.892;6.148;2023-03-01T04:05:30;39.78;;;14.68;;
52434;SDS011;38354;52.892;6.148;2023-03-01T04:07:57;40.92;;;14.70;;
52434;SDS011;38354;52.892;6.148;2023-03-01T04:10:35;92.03;;;16.40;;
52434;SDS011;38354;52.892;6.148;2023-03-01T04:13:03;77.82;;;15.52;;
52434;SDS011;38354;52.892;6.148;2023-03-01T04:15:30;103.63;;;16.17;;
52434;SDS011;38354;52.892;6.148;2023-03-01T04:17:57;91.55;;;17.13;;
52434;SDS011;38354;52.892;6.148;2023-03-01T04:20:25;61.75;;;14.73;;
52434;SDS011;38354;52.892;6.148;2023-03-01T04:23:00;99.15;;;16.13;;
52434;SDS011;38354;52.892;6.148;2023-03-01T04:25:58;122.85;;;16.50;;
52434;SDS011;38354;52.892;6.148;2023-03-01T04:28:25;72.93;;;16.80;;
52434;SDS011;38354;52.892;6.148;2023-03-01T04:30:56;84.45;;;18.15;;
52434;SDS011;38354;52.892;6.148;2023-03-01T04:33:43;93.53;;;15.75;;
52434;SDS011;38354;52.892;6.148;2023-03-01T04:36:10;107.03;;;18.08;;
52434;SDS011;38354;52.892;6.148;2023-03-01T04:38:38;100.68;;;16.38;;
52434;SDS011;38354;52.892;6.148;2023-03-01T04:41:05;91.50;;;16.92;;
52434;SDS011;38354;52.892;6.148;2023-03-01T04:43:32;58.60;;;16.73;;
52434;SDS011;38354;52.892;6.148;2023-03-01T04:46:06;54.05;;;16.33;;
52434;SDS011;38354;52.892;6.148;2023-03-01T04:48:34;70.53;;;16.27;;
52434;SDS011;38354;52.892;6.148;2023-03-01T04:51:01;42.30;;;14.60;;
52434;SDS011;38354;52.892;6.148;2023-03-01T04:53:27;41.38;;;14.77;;
52434;SDS011;38354;52.892;6.148;2023-03-01T04:55:54;28.65;;;14.93;;
52434;SDS011;38354;52.892;6.148;2023-03-01T04:58:21;24.73;;;13.80;;
52434;SDS011;38354;52.892;6.148;2023-03-01T05:00:51;23.83;;;14.07;;
52434;SDS011;38354;52.892;6.148;2023-03-01T05:03:18;25.60;;;13.57;;
52434;SDS011;38354;52.892;6.148;2023-03-01T05:05:44;27.63;;;14.80;;
52434;SDS011;38354;52.892;6.148;2023-03-01T05:08:11;25.98;;;14.45;;
52434;SDS011;38354;52.892;6.148;2023-03-01T05:10:42;26.25;;;13.52;;
52434;SDS011;38354;52.892;6.148;2023-03-01T05:13:11;24.40;;;14.10;;
52434;SDS011;38354;52.892;6.148;2023-03-01T05:15:39;23.48;;;13.02;;
52434;SDS011;38354;52.892;6.148;2023-03-01T05:18:05;26.05;;;13.82;;
52434;SDS011;38354;52.892;6.148;2023-03-01T05:20:37;22.65;;;13.02;;
52434;SDS011;38354;52.892;6.148;2023-03-01T05:23:03;21.30;;;12.98;;
52434;SDS011;38354;52.892;6.148;2023-03-01T05:25:30;22.08;;;13.45;;
52434;SDS011;38354;52.892;6.148;2023-03-01T05:28:01;22.98;;;13.00;;
52434;SDS011;38354;52.892;6.148;2023-03-01T05:30:32;24.52;;;13.18;;
52434;SDS011;38354;52.892;6.148;2023-03-01T05:32:59;22.50;;;13.25;;
52434;SDS011;38354;52.892;6.148;2023-03-01T05:35:25;21.52;;;13.07;;
52434;SDS011;38354;52.892;6.148;2023-03-01T05:37:51;21.63;;;12.90;;
52434;SDS011;38354;52.892;6.148;2023-03-01T05:40:18;25.02;;;13.52;;
52434;SDS011;38354;52.892;6.148;2023-03-01T05:42:47;24.10;;;14.07;;
52434;SDS011;38354;52.892;6.148;2023-03-01T05:45:14;24.85;;;13.88;;
52434;SDS011;38354;52.892;6.148;2023-03-01T05:47:41;23.27;;;13.10;;
52434;SDS011;38354;52.892;6.148;2023-03-01T05:50:13;21.92;;;12.98;;
52434;SDS011;38354;52.892;6.148;2023-03-01T05:52:44;25.30;;;14.15;;
52434;SDS011;38354;52.892;6.148;2023-03-01T05:55:17;22.88;;;12.60;;
52434;SDS011;38354;52.892;6.148;2023-03-01T05:57:45;21.63;;;12.57;;
52434;SDS011;38354;52.892;6.148;2023-03-01T06:00:11;28.00;;;13.68;;
52434;SDS011;38354;52.892;6.148;2023-03-01T06:02:38;22.90;;;12.77;;
52434;SDS011;38354;52.892;6.148;2023-03-01T06:05:05;21.10;;;12.70;;
52434;SDS011;38354;52.892;6.148;2023-03-01T06:07:32;21.50;;;12.27;;
52434;SDS011;38354;52.892;6.148;2023-03-01T06:09:58;21.33;;;12.90;;
52434;SDS011;38354;52.892;6.148;2023-03-01T06:12:24;23.67;;;13.65;;
52434;SDS011;38354;52.892;6.148;2023-03-01T06:14:49;22.75;;;12.75;;
52434;SDS011;38354;52.892;6.148;2023-03-01T06:17:15;21.60;;;12.63;;
52434;SDS011;38354;52.892;6.148;2023-03-01T06:19:41;21.33;;;12.25;;
52434;SDS011;38354;52.892;6.148;2023-03-01T06:22:06;21.30;;;12.43;;
52434;SDS011;38354;52.892;6.148;2023-03-01T06:24:33;23.38;;;13.60;;
52434;SDS011;38354;52.892;6.148;2023-03-01T06:27:02;20.33;;;11.93;;
52434;SDS011;38354;52.892;6.148;2023-03-01T06:29:27;22.15;;;12.45;;
52434;SDS011;38354;52.892;6.148;2023-03-01T06:31:53;22.10;;;12.73;;
52434;SDS011;38354;52.892;6.148;2023-03-01T06:34:19;21.48;;;12.30;;
52434;SDS011;38354;52.892;6.148;2023-03-01T06:36:46;20.27;;;12.02;;
52434;SDS011;38354;52.892;6.148;2023-03-01T06:39:12;21.00;;;12.43;;
52434;SDS011;38354;52.892;6.148;2023-03-01T06:41:38;25.20;;;14.32;;
52434;SDS011;38354;52.892;6.148;2023-03-01T06:44:03;24.15;;;14.07;;
52434;SDS011;38354;52.892;6.148;2023-03-01T06:46:29;28.58;;;15.40;;
52434;SDS011;38354;52.892;6.148;2023-03-01T06:48:55;25.20;;;14.30;;
52434;SDS011;38354;52.892;6.148;2023-03-01T06:51:21;30.83;;;16.75;;
52434;SDS011;38354;52.892;6.148;2023-03-01T06:53:46;28.60;;;15.25;;
52434;SDS011;38354;52.892;6.148;2023-03-01T06:56:12;25.05;;;14.60;;
52434;SDS011;38354;52.892;6.148;2023-03-01T06:58:37;23.45;;;13.32;;
52434;SDS011;38354;52.892;6.148;2023-03-01T07:01:06;20.55;;;12.13;;
52434;SDS011;38354;52.892;6.148;2023-03-01T07:03:33;21.90;;;12.95;;
52434;SDS011;38354;52.892;6.148;2023-03-01T07:05:59;22.23;;;12.48;;
52434;SDS011;38354;52.892;6.148;2023-03-01T07:08:24;20.85;;;11.77;;
52434;SDS011;38354;52.892;6.148;2023-03-01T07:10:57;18.75;;;11.55;;
52434;SDS011;38354;52.892;6.148;2023-03-01T07:13:23;21.85;;;13.02;;
52434;SDS011;38354;52.892;6.148;2023-03-01T07:15:49;22.25;;;13.15;;
52434;SDS011;38354;52.892;6.148;2023-03-01T07:18:14;27.27;;;14.55;;
52434;SDS011;38354;52.892;6.148;2023-03-01T07:20:40;23.77;;;13.98;;
52434;SDS011;38354;52.892;6.148;2023-03-01T07:23:06;24.23;;;13.98;;
52434;SDS011;38354;52.892;6.148;2023-03-01T07:25:32;24.83;;;14.52;;
52434;SDS011;38354;52.892;6.148;2023-03-01T07:27:58;26.05;;;14.02;;
52434;SDS011;38354;52.892;6.148;2023-03-01T07:30:24;24.02;;;13.27;;
52434;SDS011;38354;52.892;6.148;2023-03-01T07:32:54;24.63;;;14.13;;
52434;SDS011;38354;52.892;6.148;2023-03-01T07:35:20;24.98;;;15.07;;
52434;SDS011;38354;52.892;6.148;2023-03-01T07:37:46;25.38;;;14.70;;
52434;SDS011;38354;52.892;6.148;2023-03-01T07:40:12;24.63;;;14.70;;
52434;SDS011;38354;52.892;6.148;2023-03-01T07:42:38;24.75;;;14.32;;
52434;SDS011;38354;52.892;6.148;2023-03-01T07:45:04;28.17;;;16.00;;
52434;SDS011;38354;52.892;6.148;2023-03-01T07:47:31;26.38;;;15.38;;
52434;SDS011;38354;52.892;6.148;2023-03-01T07:49:57;27.83;;;15.38;;
52434;SDS011;38354;52.892;6.148;2023-03-01T07:52:23;26.27;;;15.55;;
52434;SDS011;38354;52.892;6.148;2023-03-01T07:54:48;30.58;;;16.48;;
52434;SDS011;38354;52.892;6.148;2023-03-01T07:57:14;29.65;;;17.05;;
52434;SDS011;38354;52.892;6.148;2023-03-01T07:59:40;31.15;;;16.48;;
52434;SDS011;38354;52.892;6.148;2023-03-01T08:02:05;30.20;;;16.45;;
52434;SDS011;38354;52.892;6.148;2023-03-01T08:04:32;30.13;;;16.48;;
52434;SDS011;38354;52.892;6.148;2023-03-01T08:06:58;31.02;;;17.02;;
52434;SDS011;38354;52.892;6.148;2023-03-01T08:09:24;31.92;;;17.30;;
52434;SDS011;38354;52.892;6.148;2023-03-01T08:11:49;31.70;;;17.27;;
52434;SDS011;38354;52.892;6.148;2023-03-01T08:14:15;34.10;;;18.20;;
52434;SDS011;38354;52.892;6.148;2023-03-01T08:16:41;32.42;;;17.90;;
52434;SDS011;38354;52.892;6.148;2023-03-01T08:19:08;36.88;;;19.35;;
52434;SDS011;38354;52.892;6.148;2023-03-01T08:21:35;42.58;;;21.02;;
52434;SDS011;38354;52.892;6.148;2023-03-01T08:24:04;42.30;;;21.38;;
52434;SDS011;38354;52.892;6.148;2023-03-01T08:26:31;42.08;;;20.63;;
52434;SDS011;38354;52.892;6.148;2023-03-01T08:28:57;43.15;;;21.52;;
52434;SDS011;38354;52.892;6.148;2023-03-01T08:31:27;41.22;;;20.70;;
52434;SDS011;38354;52.892;6.148;2023-03-01T08:33:56;41.05;;;21.88;;
52434;SDS011;38354;52.892;6.148;2023-03-01T08:36:25;41.80;;;22.88;;
52434;SDS011;38354;52.892;6.148;2023-03-01T08:38:55;45.05;;;23.17;;
52434;SDS011;38354;52.892;6.148;2023-03-01T08:41:21;45.72;;;24.13;;
52434;SDS011;38354;52.892;6.148;2023-03-01T08:43:47;47.63;;;24.33;;
52434;SDS011;38354;52.892;6.148;2023-03-01T08:46:12;42.03;;;21.83;;
52434;SDS011;38354;52.892;6.148;2023-03-01T08:48:38;43.55;;;22.90;;
52434;SDS011;38354;52.892;6.148;2023-03-01T08:51:08;43.85;;;23.27;;
52434;SDS011;38354;52.892;6.148;2023-03-01T08:53:35;48.38;;;24.65;;
52434;SDS011;38354;52.892;6.148;2023-03-01T08:56:00;49.28;;;24.00;;
52434;SDS011;38354;52.892;6.148;2023-03-01T08:58:27;50.42;;;25.98;;
52434;SDS011;38354;52.892;6.148;2023-03-01T09:00:53;50.85;;;25.33;;
52434;SDS011;38354;52.892;6.148;2023-03-01T09:03:21;54.70;;;26.85;;
52434;SDS011;38354;52.892;6.148;2023-03-01T09:05:47;47.92;;;25.10;;
52434;SDS011;38354;52.892;6.148;2023-03-01T09:08:15;53.85;;;27.23;;
52434;SDS011;38354;52.892;6.148;2023-03-01T09:10:47;52.38;;;26.17;;
52434;SDS011;38354;52.892;6.148;2023-03-01T09:13:16;49.63;;;26.55;;
52434;SDS011;38354;52.892;6.148;2023-03-01T09:15:42;50.70;;;25.88;;
52434;SDS011;38354;52.892;6.148;2023-03-01T09:18:07;45.90;;;25.80;;
52434;SDS011;38354;52.892;6.148;2023-03-01T09:20:36;51.40;;;25.05;;
52434;SDS011;38354;52.892;6.148;2023-03-01T09:23:02;45.50;;;24.92;;
52434;SDS011;38354;52.892;6.148;2023-03-01T09:25:27;45.42;;;24.65;;
52434;SDS011;38354;52.892;6.148;2023-03-01T09:27:53;41.35;;;24.10;;
52434;SDS011;38354;52.892;6.148;2023-03-01T09:30:19;41.65;;;24.45;;
52434;SDS011;38354;52.892;6.148;2023-03-01T09:32:46;41.92;;;24.13;;
52434;SDS011;38354;52.892;6.148;2023-03-01T09:35:11;44.30;;;23.60;;
52434;SDS011;38354;52.892;6.148;2023-03-01T09:37:38;38.22;;;22.85;;
52434;SDS011;38354;52.892;6.148;2023-03-01T09:40:11;38.33;;;22.20;;
52434;SDS011;38354;52.892;6.148;2023-03-01T09:42:45;37.53;;;21.80;;
52434;SDS011;38354;52.892;6.148;2023-03-01T09:45:27;37.00;;;21.33;;
52434;SDS011;38354;52.892;6.148;2023-03-01T09:48:00;38.63;;;22.30;;
52434;SDS011;38354;52.892;6.148;2023-03-01T09:50:32;35.30;;;21.05;;
52434;SDS011;38354;52.892;6.148;2023-03-01T09:58:27;38.05;;;19.83;;
52434;SDS011;38354;52.892;6.148;2023-03-01T10:00:57;37.67;;;21.35;;
52434;SDS011;38354;52.892;6.148;2023-03-01T10:03:39;37.08;;;20.25;;
52434;SDS011;38354;52.892;6.148;2023-03-01T10:06:22;43.55;;;21.50;;
52434;SDS011;38354;52.892;6.148;2023-03-01T10:09:02;34.97;;;19.38;;
52434;SDS011;38354;52.892;6.148;2023-03-01T10:11:36;35.00;;;19.38;;
52434;SDS011;38354;52.892;6.148;2023-03-01T10:14:27;34.25;;;18.67;;
52434;SDS011;38354;52.892;6.148;2023-03-01T10:19:50;27.50;;;16.35;;
52434;SDS011;38354;52.892;6.148;2023-03-01T10:24:46;28.48;;;15.95;;
52434;SDS011;38354;52.892;6.148;2023-03-01T10:27:25;28.13;;;15.75;;
52434;SDS011;38354;52.892;6.148;2023-03-01T10:30:07;26.30;;;15.68;;
52434;SDS011;38354;52.892;6.148;2023-03-01T10:32:44;26.02;;;15.35;;
52434;SDS011;38354;52.892;6.148;2023-03-01T10:40:28;22.90;;;14.45;;
52434;SDS011;38354;52.892;6.148;2023-03-01T10:42:57;22.63;;;13.27;;
52434;SDS011;38354;52.892;6.148;2023-03-01T10:50:51;24.95;;;15.13;;
52434;SDS011;38354;52.892;6.148;2023-03-01T10:53:41;25.48;;;14.93;;
52434;SDS011;38354;52.892;6.148;2023-03-01T10:56:09;24.85;;;15.23;;
52434;SDS011;38354;52.892;6.148;2023-03-01T10:58:59;26.33;;;15.35;;
52434;SDS011;38354;52.892;6.148;2023-03-01T11:01:28;24.75;;;14.88;;
52434;SDS011;38354;52.892;6.148;2023-03-01T11:06:32;25.13;;;14.57;;
52434;SDS011;38354;52.892;6.148;2023-03-01T11:09:20;23.15;;;14.48;;
52434;SDS011;38354;52.892;6.148;2023-03-01T11:11:51;23.25;;;13.50;;
52434;SDS011;38354;52.892;6.148;2023-03-01T11:14:25;24.65;;;13.27;;
52434;SDS011;38354;52.892;6.148;2023-03-01T11:16:59;23.83;;;14.30;;
52434;SDS011;38354;52.892;6.148;2023-03-01T11:19:37;21.95;;;13.85;;
52434;SDS011;38354;52.892;6.148;2023-03-01T11:22:13;24.52;;;13.82;;
52434;SDS011;38354;52.892;6.148;2023-03-01T11:24:46;21.65;;;12.57;;
52434;SDS011;38354;52.892;6.148;2023-03-01T11:29:45;21.98;;;13.20;;
52434;SDS011;38354;52.892;6.148;2023-03-01T11:32:28;18.08;;;11.00;;
52434;SDS011;38354;52.892;6.148;2023-03-01T11:35:04;19.08;;;11.45;;
52434;SDS011;38354;52.892;6.148;2023-03-01T11:37:50;21.67;;;12.68;;
52434;SDS011;38354;52.892;6.148;2023-03-01T11:40:25;18.95;;;11.90;;
52434;SDS011;38354;52.892;6.148;2023-03-01T11:43:13;20.58;;;12.25;;
52434;SDS011;38354;52.892;6.148;2023-03-01T11:45:47;22.80;;;13.00;;
52434;SDS011;38354;52.892;6.148;2023-03-01T11:57:14;23.27;;;12.63;;
52434;SDS011;38354;52.892;6.148;2023-03-01T12:02:37;24.00;;;12.70;;
52434;SDS011;38354;52.892;6.148;2023-03-01T12:05:20;20.25;;;12.23;;
52434;SDS011;38354;52.892;6.148;2023-03-01T12:08:01;21.17;;;12.50;;
52434;SDS011;38354;52.892;6.148;2023-03-01T12:10:48;21.55;;;13.02;;
52434;SDS011;38354;52.892;6.148;2023-03-01T12:13:49;21.02;;;12.45;;
52434;SDS011;38354;52.892;6.148;2023-03-01T12:16:39;22.48;;;12.68;;
52434;SDS011;38354;52.892;6.148;2023-03-01T12:24:47;22.40;;;12.45;;
52434;SDS011;38354;52.892;6.148;2023-03-01T12:35:47;18.17;;;11.85;;
52434;SDS011;38354;52.892;6.148;2023-03-01T12:38:42;20.20;;;11.57;;
52434;SDS011;38354;52.892;6.148;2023-03-01T12:46:53;18.27;;;11.52;;
52434;SDS011;38354;52.892;6.148;2023-03-01T12:49:31;21.85;;;11.73;;
52434;SDS011;38354;52.892;6.148;2023-03-01T12:52:10;19.90;;;12.15;;
52434;SDS011;38354;52.892;6.148;2023-03-01T12:54:37;20.83;;;12.55;;
52434;SDS011;38354;52.892;6.148;2023-03-01T12:57:12;19.48;;;12.13;;
52434;SDS011;38354;52.892;6.148;2023-03-01T13:00:27;19.90;;;12.18;;
52434;SDS011;38354;52.892;6.148;2023-03-01T13:05:34;18.13;;;11.18;;
52434;SDS011;38354;52.892;6.148;2023-03-01T13:08:20;18.45;;;11.02;;
52434;SDS011;38354;52.892;6.148;2023-03-01T13:11:05;19.20;;;11.32;;
52434;SDS011;38354;52.892;6.148;2023-03-01T13:13:36;19.27;;;11.02;;
52434;SDS011;38354;52.892;6.148;2023-03-01T13:21:54;18.73;;;11.80;;
52434;SDS011;38354;52.892;6.148;2023-03-01T13:24:24;18.42;;;10.77;;
52434;SDS011;38354;52.892;6.148;2023-03-01T13:29:52;17.77;;;11.60;;
52434;SDS011;38354;52.892;6.148;2023-03-01T13:42:49;18.83;;;11.30;;
52434;SDS011;38354;52.892;6.148;2023-03-01T13:48:03;20.35;;;11.95;;
52434;SDS011;38354;52.892;6.148;2023-03-01T13:50:38;19.25;;;12.18;;
52434;SDS011;38354;52.892;6.148;2023-03-01T13:53:14;19.05;;;11.55;;
52434;SDS011;38354;52.892;6.148;2023-03-01T13:55:55;19.10;;;12.82;;
52434;SDS011;38354;52.892;6.148;2023-03-01T13:58:29;19.13;;;11.55;;
52434;SDS011;38354;52.892;6.148;2023-03-01T14:01:01;19.27;;;11.98;;
52434;SDS011;38354;52.892;6.148;2023-03-01T14:03:39;18.35;;;11.70;;
52434;SDS011;38354;52.892;6.148;2023-03-01T14:06:14;18.23;;;11.88;;
52434;SDS011;38354;52.892;6.148;2023-03-01T14:08:43;19.25;;;11.95;;
52434;SDS011;38354;52.892;6.148;2023-03-01T14:13:58;16.83;;;11.82;;
52434;SDS011;38354;52.892;6.148;2023-03-01T14:19:27;18.88;;;11.40;;
52434;SDS011;38354;52.892;6.148;2023-03-01T14:24:44;17.83;;;11.90;;
52434;SDS011;38354;52.892;6.148;2023-03-01T14:27:14;16.92;;;11.43;;
52434;SDS011;38354;52.892;6.148;2023-03-01T14:29:40;18.55;;;12.07;;
52434;SDS011;38354;52.892;6.148;2023-03-01T14:32:18;18.25;;;11.40;;
52434;SDS011;38354;52.892;6.148;2023-03-01T14:34:49;19.45;;;12.23;;
52434;SDS011;38354;52.892;6.148;2023-03-01T14:39:56;19.30;;;12.38;;
52434;SDS011;38354;52.892;6.148;2023-03-01T14:42:23;20.38;;;13.30;;
52434;SDS011;38354;52.892;6.148;2023-03-01T14:44:52;21.00;;;12.98;;
52434;SDS011;38354;52.892;6.148;2023-03-01T14:47:25;21.35;;;12.63;;
52434;SDS011;38354;52.892;6.148;2023-03-01T14:50:03;22.02;;;13.27;;
52434;SDS011;38354;52.892;6.148;2023-03-01T14:52:37;18.73;;;12.53;;
52434;SDS011;38354;52.892;6.148;2023-03-01T14:55:05;21.08;;;13.40;;
52434;SDS011;38354;52.892;6.148;2023-03-01T14:57:42;20.65;;;12.80;;
52434;SDS011;38354;52.892;6.148;2023-03-01T15:00:10;21.13;;;12.77;;
52434;SDS011;38354;52.892;6.148;2023-03-01T15:02:48;22.00;;;13.10;;
52434;SDS011;38354;52.892;6.148;2023-03-01T15:05:26;18.88;;;12.35;;
52434;SDS011;38354;52.892;6.148;2023-03-01T15:07:54;22.58;;;13.68;;
52434;SDS011;38354;52.892;6.148;2023-03-01T15:10:23;18.55;;;11.55;;
52434;SDS011;38354;52.892;6.148;2023-03-01T15:12:51;19.38;;;12.40;;
52434;SDS011;38354;52.892;6.148;2023-03-01T15:18:17;19.80;;;11.82;;
52434;SDS011;38354;52.892;6.148;2023-03-01T15:20:45;19.08;;;11.90;;
52434;SDS011;38354;52.892;6.148;2023-03-01T15:23:20;19.95;;;11.70;;
52434;SDS011;38354;52.892;6.148;2023-03-01T15:25:54;18.13;;;11.65;;
52434;SDS011;38354;52.892;6.148;2023-03-01T15:28:25;21.23;;;11.32;;
52434;SDS011;38354;52.892;6.148;2023-03-01T15:30:58;18.77;;;11.75;;
52434;SDS011;38354;52.892;6.148;2023-03-01T15:33:28;18.00;;;11.73;;
52434;SDS011;38354;52.892;6.148;2023-03-01T15:35:58;17.13;;;10.82;;
52434;SDS011;38354;52.892;6.148;2023-03-01T15:38:25;19.20;;;12.10;;
52434;SDS011;38354;52.892;6.148;2023-03-01T15:40:55;15.73;;;10.23;;
52434;SDS011;38354;52.892;6.148;2023-03-01T15:46:05;16.75;;;11.00;;
52434;SDS011;38354;52.892;6.148;2023-03-01T15:48:43;15.85;;;10.23;;
52434;SDS011;38354;52.892;6.148;2023-03-01T15:51:11;16.90;;;10.18;;
52434;SDS011;38354;52.892;6.148;2023-03-01T15:53:39;14.45;;;10.52;;
52434;SDS011;38354;52.892;6.148;2023-03-01T15:56:05;15.82;;;10.02;;
52434;SDS011;38354;52.892;6.148;2023-03-01T15:58:32;16.27;;;10.65;;
52434;SDS011;38354;52.892;6.148;2023-03-01T16:00:58;18.30;;;10.43;;
52434;SDS011;38354;52.892;6.148;2023-03-01T16:03:24;16.55;;;10.93;;
52434;SDS011;38354;52.892;6.148;2023-03-01T16:05:50;17.48;;;9.32;;
52434;SDS011;38354;52.892;6.148;2023-03-01T16:08:17;14.43;;;10.18;;
52434;SDS011;38354;52.892;6.148;2023-03-01T16:10:43;16.85;;;10.07;;
52434;SDS011;38354;52.892;6.148;2023-03-01T16:13:10;15.07;;;10.02;;
52434;SDS011;38354;52.892;6.148;2023-03-01T16:15:36;13.88;;;9.70;;
52434;SDS011;38354;52.892;6.148;2023-03-01T16:18:03;16.95;;;10.50;;
52434;SDS011;38354;52.892;6.148;2023-03-01T16:20:35;14.65;;;10.05;;
52434;SDS011;38354;52.892;6.148;2023-03-01T16:23:01;13.77;;;10.05;;
52434;SDS011;38354;52.892;6.148;2023-03-01T16:25:28;14.45;;;9.98;;
52434;SDS011;38354;52.892;6.148;2023-03-01T16:27:54;14.68;;;10.55;;
52434;SDS011;38354;52.892;6.148;2023-03-01T16:30:21;15.43;;;10.50;;
52434;SDS011;38354;52.892;6.148;2023-03-01T16:32:48;18.08;;;11.00;;
52434;SDS011;38354;52.892;6.148;2023-03-01T16:35:15;17.52;;;10.60;;
52434;SDS011;38354;52.892;6.148;2023-03-01T16:37:42;17.50;;;11.65;;
52434;SDS011;38354;52.892;6.148;2023-03-01T16:40:19;17.95;;;11.25;;
52434;SDS011;38354;52.892;6.148;2023-03-01T16:42:49;17.23;;;10.93;;
52434;SDS011;38354;52.892;6.148;2023-03-01T16:45:15;18.50;;;11.27;;
52434;SDS011;38354;52.892;6.148;2023-03-01T16:47:41;17.23;;;11.70;;
52434;SDS011;38354;52.892;6.148;2023-03-01T16:50:07;21.30;;;12.48;;
52434;SDS011;38354;52.892;6.148;2023-03-01T16:52:33;20.52;;;12.43;;
52434;SDS011;38354;52.892;6.148;2023-03-01T16:54:59;21.13;;;12.60;;
52434;SDS011;38354;52.892;6.148;2023-03-01T16:57:25;23.48;;;12.88;;
52434;SDS011;38354;52.892;6.148;2023-03-01T16:59:51;22.80;;;13.55;;
52434;SDS011;38354;52.892;6.148;2023-03-01T17:02:20;22.98;;;13.90;;
52434;SDS011;38354;52.892;6.148;2023-03-01T17:04:53;24.83;;;14.60;;
52434;SDS011;38354;52.892;6.148;2023-03-01T17:07:20;27.10;;;14.00;;
52434;SDS011;38354;52.892;6.148;2023-03-01T17:09:46;25.77;;;14.15;;
52434;SDS011;38354;52.892;6.148;2023-03-01T17:12:12;24.10;;;14.27;;
52434;SDS011;38354;52.892;6.148;2023-03-01T17:14:38;30.20;;;15.30;;
52434;SDS011;38354;52.892;6.148;2023-03-01T17:17:06;25.58;;;14.40;;
52434;SDS011;38354;52.892;6.148;2023-03-01T17:19:33;25.67;;;15.32;;
52434;SDS011;38354;52.892;6.148;2023-03-01T17:22:00;26.55;;;14.25;;
52434;SDS011;38354;52.892;6.148;2023-03-01T17:24:27;27.23;;;15.45;;
52434;SDS011;38354;52.892;6.148;2023-03-01T17:26:54;25.73;;;15.25;;
52434;SDS011;38354;52.892;6.148;2023-03-01T17:29:20;31.83;;;15.90;;
52434;SDS011;38354;52.892;6.148;2023-03-01T17:31:45;25.98;;;15.30;;
52434;SDS011;38354;52.892;6.148;2023-03-01T17:34:11;29.95;;;16.50;;
52434;SDS011;38354;52.892;6.148;2023-03-01T17:36:37;28.23;;;15.85;;
52434;SDS011;38354;52.892;6.148;2023-03-01T17:39:08;30.05;;;16.67;;
52434;SDS011;38354;52.892;6.148;2023-03-01T17:41:37;29.65;;;16.77;;
52434;SDS011;38354;52.892;6.148;2023-03-01T17:44:03;26.92;;;15.68;;
52434;SDS011;38354;52.892;6.148;2023-03-01T17:46:29;31.73;;;16.70;;
52434;SDS011;38354;52.892;6.148;2023-03-01T17:48:54;28.92;;;16.45;;
52434;SDS011;38354;52.892;6.148;2023-03-01T17:51:20;31.58;;;17.63;;
52434;SDS011;38354;52.892;6.148;2023-03-01T17:53:46;28.70;;;15.80;;
52434;SDS011;38354;52.892;6.148;2023-03-01T17:56:11;31.65;;;17.02;;
52434;SDS011;38354;52.892;6.148;2023-03-01T17:58:37;32.53;;;17.52;;
52434;SDS011;38354;52.892;6.148;2023-03-01T18:03:40;32.10;;;17.70;;
52434;SDS011;38354;52.892;6.148;2023-03-01T18:06:10;33.60;;;18.60;;
52434;SDS011;38354;52.892;6.148;2023-03-01T18:08:40;32.60;;;17.13;;
52434;SDS011;38354;52.892;6.148;2023-03-01T18:11:07;32.13;;;17.65;;
52434;SDS011;38354;52.892;6.148;2023-03-01T18:13:34;30.52;;;17.52;;
52434;SDS011;38354;52.892;6.148;2023-03-01T18:16:03;31.67;;;18.25;;
52434;SDS011;38354;52.892;6.148;2023-03-01T18:18:33;33.38;;;18.40;;
52434;SDS011;38354;52.892;6.148;2023-03-01T18:20:59;34.75;;;18.85;;
52434;SDS011;38354;52.892;6.148;2023-03-01T18:23:26;33.60;;;19.23;;
52434;SDS011;38354;52.892;6.148;2023-03-01T18:25:56;37.00;;;18.38;;
52434;SDS011;38354;52.892;6.148;2023-03-01T18:28:41;34.25;;;18.58;;
52434;SDS011;38354;52.892;6.148;2023-03-01T18:31:11;34.20;;;19.15;;
52434;SDS011;38354;52.892;6.148;2023-03-01T18:33:38;32.53;;;18.17;;
52434;SDS011;38354;52.892;6.148;2023-03-01T18:36:04;42.00;;;19.98;;
52434;SDS011;38354;52.892;6.148;2023-03-01T18:43:30;32.80;;;17.03;;
52434;SDS011;38354;52.892;6.148;2023-03-01T18:45:57;32.00;;;16.75;;
52434;SDS011;38354;52.892;6.148;2023-03-01T18:48:22;33.53;;;18.83;;
52434;SDS011;38354;52.892;6.148;2023-03-01T18:50:48;34.15;;;18.70;;
52434;SDS011;38354;52.892;6.148;2023-03-01T18:53:14;35.67;;;18.42;;
52434;SDS011;38354;52.892;6.148;2023-03-01T18:55:40;37.33;;;19.88;;
52434;SDS011;38354;52.892;6.148;2023-03-01T18:58:05;32.90;;;18.92;;
52434;SDS011;38354;52.892;6.148;2023-03-01T19:00:31;37.55;;;18.83;;
52434;SDS011;38354;52.892;6.148;2023-03-01T19:02:58;34.05;;;18.35;;
52434;SDS011;38354;52.892;6.148;2023-03-01T19:05:25;33.88;;;17.95;;
52434;SDS011;38354;52.892;6.148;2023-03-01T19:07:52;36.60;;;19.10;;
52434;SDS011;38354;52.892;6.148;2023-03-01T19:10:17;34.03;;;18.52;;
52434;SDS011;38354;52.892;6.148;2023-03-01T19:12:43;33.88;;;17.45;;
52434;SDS011;38354;52.892;6.148;2023-03-01T19:15:09;35.67;;;18.40;;
52434;SDS011;38354;52.892;6.148;2023-03-01T19:17:35;35.25;;;18.55;;
52434;SDS011;38354;52.892;6.148;2023-03-01T19:20:01;31.83;;;17.00;;
52434;SDS011;38354;52.892;6.148;2023-03-01T19:22:26;33.05;;;18.48;;
52434;SDS011;38354;52.892;6.148;2023-03-01T19:24:52;36.03;;;19.17;;
52434;SDS011;38354;52.892;6.148;2023-03-01T19:27:18;34.17;;;17.88;;
52434;SDS011;38354;52.892;6.148;2023-03-01T19:29:44;34.88;;;17.67;;
52434;SDS011;38354;52.892;6.148;2023-03-01T19:32:09;35.10;;;18.73;;
52434;SDS011;38354;52.892;6.148;2023-03-01T19:34:35;35.88;;;18.58;;
52434;SDS011;38354;52.892;6.148;2023-03-01T19:37:02;35.10;;;18.73;;
52434;SDS011;38354;52.892;6.148;2023-03-01T19:39:28;34.60;;;19.00;;
52434;SDS011;38354;52.892;6.148;2023-03-01T19:41:54;36.85;;;18.55;;
52434;SDS011;38354;52.892;6.148;2023-03-01T19:44:20;35.20;;;19.15;;
52434;SDS011;38354;52.892;6.148;2023-03-01T19:46:52;37.13;;;19.77;;
52434;SDS011;38354;52.892;6.148;2023-03-01T19:49:18;34.90;;;18.50;;
52434;SDS011;38354;52.892;6.148;2023-03-01T19:51:44;33.70;;;19.05;;
52434;SDS011;38354;52.892;6.148;2023-03-01T19:54:09;36.78;;;20.13;;
52434;SDS011;38354;52.892;6.148;2023-03-01T19:56:36;36.97;;;18.92;;
52434;SDS011;38354;52.892;6.148;2023-03-01T19:59:03;41.05;;;20.00;;
52434;SDS011;38354;52.892;6.148;2023-03-01T20:01:30;37.58;;;19.75;;
52434;SDS011;38354;52.892;6.148;2023-03-01T20:03:58;38.88;;;20.42;;
52434;SDS011;38354;52.892;6.148;2023-03-01T20:06:25;38.50;;;20.15;;
52434;SDS011;38354;52.892;6.148;2023-03-01T20:08:51;35.33;;;19.15;;
52434;SDS011;38354;52.892;6.148;2023-03-01T20:11:17;37.45;;;20.00;;
52434;SDS011;38354;52.892;6.148;2023-03-01T20:13:43;38.10;;;20.58;;
52434;SDS011;38354;52.892;6.148;2023-03-01T20:16:10;37.25;;;20.40;;
52434;SDS011;38354;52.892;6.148;2023-03-01T20:18:39;37.50;;;20.38;;
52434;SDS011;38354;52.892;6.148;2023-03-01T20:21:05;37.50;;;20.00;;